createdAt,value
2016-12-18T11:34:55.824Z,1028.09
2016-12-18T11:36:04.808Z,1028.05
2016-12-18T11:37:13.804Z,1027.98
2016-12-18T11:38:22.783Z,1027.93
2016-12-18T11:39:31.795Z,1027.89
2016-12-18T11:40:41.076Z,1027.98
2016-12-18T11:41:50.047Z,1027.96
2016-12-18T11:42:59.040Z,1027.97
2016-12-18T11:44:08.001Z,1028.01
2016-12-18T11:45:16.979Z,1028.02
2016-12-18T11:46:25.948Z,1028.02
2016-12-18T11:47:34.929Z,1028.03
2016-12-18T11:48:43.996Z,1028.03
2016-12-18T11:49:52.978Z,1027.99
2016-12-18T11:51:01.946Z,1027.94
2016-12-18T11:52:10.989Z,1027.97
2016-12-18T11:53:19.967Z,1027.95
2016-12-18T11:54:28.950Z,1027.91
2016-12-18T11:55:38.040Z,1027.92
2016-12-18T11:56:48.542Z,1027.86
2016-12-18T11:57:57.655Z,1027.89
2016-12-18T11:59:07.166Z,1027.87
2016-12-18T12:00:19.694Z,1027.93
2016-12-18T12:01:29.449Z,1027.91
2016-12-18T12:02:38.460Z,1027.92
2016-12-18T12:03:47.624Z,1027.88
2016-12-18T12:04:56.610Z,1027.93
2016-12-18T12:06:05.594Z,1027.9
2016-12-18T12:07:14.650Z,1027.9
2016-12-18T12:08:23.637Z,1027.95
2016-12-18T12:09:32.705Z,1027.93
2016-12-18T12:10:41.774Z,1027.96
2016-12-18T12:11:50.760Z,1027.98
2016-12-18T12:12:59.745Z,1027.95
2016-12-18T12:14:08.720Z,1027.93
2016-12-18T12:15:17.786Z,1027.97
2016-12-18T12:16:26.813Z,1027.94
2016-12-18T12:17:35.930Z,1027.92
2016-12-18T12:18:44.919Z,1027.93
2016-12-18T12:19:53.888Z,1027.93
2016-12-18T12:21:03.102Z,1027.92
2016-12-18T12:22:12.115Z,1027.93
2016-12-18T12:23:21.087Z,1027.95
2016-12-18T12:24:30.608Z,1027.97
2016-12-18T12:25:39.582Z,1027.94
2016-12-18T12:26:48.555Z,1027.97
2016-12-18T12:27:57.691Z,1027.96
2016-12-18T12:29:06.681Z,1027.91
2016-12-18T12:30:15.680Z,1027.92
2016-12-18T12:31:25.001Z,1027.93
2016-12-18T12:32:33.970Z,1027.93
2016-12-18T12:33:42.950Z,1027.88
2016-12-18T12:34:52.111Z,1027.85
2016-12-18T12:36:01.095Z,1027.89
2016-12-18T12:37:10.088Z,1027.85
2016-12-18T12:38:19.118Z,1027.88
2016-12-18T12:39:28.083Z,1027.88
2016-12-18T12:40:37.092Z,1027.87
2016-12-18T12:41:46.065Z,1027.87
2016-12-18T12:42:55.058Z,1027.85
2016-12-18T12:44:04.045Z,1027.89
2016-12-18T12:45:13.038Z,1027.89
2016-12-18T12:46:22.076Z,1027.83
2016-12-18T12:47:31.068Z,1027.85
2016-12-18T12:48:40.135Z,1027.79
2016-12-18T12:49:49.416Z,1027.78
2016-12-18T12:50:58.413Z,1027.74
2016-12-18T12:52:07.649Z,1027.75
2016-12-18T12:53:19.645Z,1027.7
2016-12-18T12:54:28.974Z,1027.7
2016-12-18T12:55:40.132Z,1027.75
2016-12-18T12:56:49.119Z,1027.74
2016-12-18T12:57:58.088Z,1027.76
2016-12-18T12:59:07.128Z,1027.76
2016-12-18T13:00:16.111Z,1027.75
2016-12-18T13:01:25.122Z,1027.73
2016-12-18T13:02:34.243Z,1027.78
2016-12-18T13:03:43.231Z,1027.8
2016-12-18T13:04:52.261Z,1027.77
2016-12-18T13:06:01.339Z,1027.79
2016-12-18T13:07:10.327Z,1027.8
2016-12-18T13:08:19.308Z,1027.79
2016-12-18T13:09:28.283Z,1027.77
2016-12-18T13:10:37.260Z,1027.76
2016-12-18T13:11:46.235Z,1027.78
2016-12-18T13:12:55.216Z,1027.78
2016-12-18T13:14:04.224Z,1027.79
2016-12-18T13:15:13.207Z,1027.77
2016-12-18T13:16:22.184Z,1027.77
2016-12-18T13:17:31.240Z,1027.77
2016-12-18T13:18:40.239Z,1027.81
2016-12-18T13:19:49.233Z,1027.82
2016-12-18T13:20:58.349Z,1027.84
2016-12-18T13:22:07.321Z,1027.86
2016-12-18T13:23:16.503Z,1027.83
2016-12-18T13:24:25.520Z,1027.88
2016-12-18T13:25:34.500Z,1027.87
2016-12-18T13:26:43.532Z,1027.91
2016-12-18T13:27:52.803Z,1027.91
2016-12-18T13:29:01.805Z,1027.92
2016-12-18T13:30:11.298Z,1027.9
2016-12-18T13:31:20.297Z,1027.86
2016-12-18T13:32:29.553Z,1027.91
2016-12-18T13:33:38.541Z,1027.88
2016-12-18T13:34:47.517Z,1027.92
2016-12-18T13:35:56.699Z,1027.9
2016-12-18T13:37:05.683Z,1027.93
2016-12-18T13:38:14.931Z,1027.88
2016-12-18T13:39:23.958Z,1027.89
2016-12-18T13:40:32.977Z,1027.89
2016-12-18T13:41:42.095Z,1027.86
2016-12-18T13:42:51.095Z,1027.85
2016-12-18T13:44:00.095Z,1027.8
2016-12-18T13:45:09.803Z,1027.78
2016-12-18T13:46:18.798Z,1027.8
2016-12-18T13:47:27.830Z,1027.82
2016-12-18T13:48:37.277Z,1027.78
2016-12-18T13:49:46.314Z,1027.83
2016-12-18T13:50:55.506Z,1027.85
2016-12-18T13:52:04.948Z,1027.85
2016-12-18T13:53:13.924Z,1027.87
2016-12-18T13:54:23.669Z,1027.86
2016-12-18T13:55:32.728Z,1027.87
2016-12-18T13:56:41.876Z,1027.86
2016-12-18T13:57:50.897Z,1027.86
2016-12-18T13:58:59.974Z,1027.86
2016-12-18T14:00:08.986Z,1027.92
2016-12-18T14:01:18.051Z,1027.88
2016-12-18T14:02:27.059Z,1027.91
2016-12-18T14:03:36.043Z,1027.87
2016-12-18T14:04:45.155Z,1027.88
2016-12-18T14:05:54.141Z,1027.85
2016-12-18T14:07:03.377Z,1027.86
2016-12-18T14:08:12.370Z,1027.87
2016-12-18T14:09:21.349Z,1027.88
2016-12-18T14:10:30.537Z,1027.85
2016-12-18T14:11:39.533Z,1027.84
2016-12-18T14:12:48.530Z,1027.82
2016-12-18T14:13:57.536Z,1027.82
2016-12-18T14:15:06.538Z,1027.85
2016-12-18T14:16:15.512Z,1027.84
2016-12-18T14:17:24.909Z,1027.83
2016-12-18T14:18:33.919Z,1027.83
2016-12-18T14:19:42.963Z,1027.77
2016-12-18T14:20:52.107Z,1027.8
2016-12-18T14:22:01.125Z,1027.76
2016-12-18T14:23:10.162Z,1027.75
2016-12-18T14:24:19.194Z,1027.76
2016-12-18T14:25:28.181Z,1027.75
2016-12-18T14:26:37.222Z,1027.77
2016-12-18T14:27:46.203Z,1027.73
2016-12-18T14:28:55.606Z,1027.76
2016-12-18T14:30:04.587Z,1027.71
2016-12-18T14:31:13.570Z,1027.74
2016-12-18T14:32:22.597Z,1027.73
2016-12-18T14:33:31.585Z,1027.72
2016-12-18T14:34:40.689Z,1027.73
2016-12-18T14:35:49.828Z,1027.72
2016-12-18T14:36:58.850Z,1027.69
2016-12-18T14:38:07.828Z,1027.65
2016-12-18T14:39:17.053Z,1027.68
2016-12-18T14:40:26.058Z,1027.67
2016-12-18T14:41:35.365Z,1027.73
2016-12-18T14:42:44.402Z,1027.68
2016-12-18T14:43:53.397Z,1027.7
2016-12-18T14:45:02.506Z,1027.7
2016-12-18T14:46:11.496Z,1027.75
2016-12-18T14:47:20.484Z,1027.75
2016-12-18T14:48:29.454Z,1027.8
2016-12-18T14:49:38.473Z,1027.79
2016-12-18T14:50:47.543Z,1027.8
2016-12-18T14:51:56.532Z,1027.8
2016-12-18T14:53:05.521Z,1027.85
2016-12-18T14:54:14.617Z,1027.86
2016-12-18T14:55:23.608Z,1027.83
2016-12-18T14:56:32.628Z,1027.85
2016-12-18T14:57:41.718Z,1027.87
2016-12-18T14:58:50.701Z,1027.83
2016-12-18T14:59:59.692Z,1027.84
2016-12-18T15:01:08.772Z,1027.87
2016-12-18T15:02:17.750Z,1027.89
2016-12-18T15:03:26.781Z,1027.83
2016-12-18T15:04:35.874Z,1027.82
2016-12-18T15:05:44.871Z,1027.81
2016-12-18T15:06:53.862Z,1027.8
2016-12-18T15:08:02.844Z,1027.84
2016-12-18T15:09:12.101Z,1027.82
2016-12-18T15:10:21.081Z,1027.81
2016-12-18T15:11:30.069Z,1027.85
2016-12-18T15:12:39.304Z,1027.84
2016-12-18T15:13:48.294Z,1027.8
2016-12-18T15:14:57.280Z,1027.84
2016-12-18T15:16:06.419Z,1027.85
2016-12-18T15:17:15.407Z,1027.92
2016-12-18T15:18:24.382Z,1027.92
2016-12-18T15:19:33.438Z,1027.95
2016-12-18T15:20:42.412Z,1027.95
2016-12-18T15:21:51.448Z,1027.96
2016-12-18T15:23:00.816Z,1027.98
2016-12-18T15:24:09.807Z,1027.98
2016-12-18T15:25:18.886Z,1028.02
2016-12-18T15:26:27.906Z,1028
2016-12-18T15:27:36.883Z,1027.98
2016-12-18T15:28:45.867Z,1028.01
2016-12-18T15:29:54.858Z,1028.01
2016-12-18T15:31:03.904Z,1027.99
2016-12-18T15:32:12.889Z,1027.99
2016-12-18T15:33:21.871Z,1027.97
2016-12-18T15:34:31.201Z,1028.01
2016-12-18T15:35:40.178Z,1028
2016-12-18T15:36:49.172Z,1028.02
2016-12-18T15:37:58.192Z,1028.03
2016-12-18T15:39:07.199Z,1028.02
2016-12-18T15:40:16.175Z,1028.06
2016-12-18T15:41:25.233Z,1028.02
2016-12-18T15:42:34.217Z,1027.99
2016-12-18T15:43:43.235Z,1028.02
2016-12-18T15:44:52.241Z,1027.99
2016-12-18T15:46:01.255Z,1028.02
2016-12-18T15:47:10.247Z,1028.05
2016-12-18T15:48:19.227Z,1028.01
2016-12-18T15:49:28.572Z,1028.03
2016-12-18T15:50:37.554Z,1028.05
2016-12-18T15:51:46.531Z,1028
2016-12-18T15:52:55.557Z,1028.02
2016-12-18T15:54:04.546Z,1028.02
2016-12-18T15:55:13.534Z,1028.04
2016-12-18T15:56:22.602Z,1028.03
2016-12-18T15:57:31.581Z,1027.99
2016-12-18T15:58:40.598Z,1028
2016-12-18T15:59:49.744Z,1028.01
2016-12-18T16:00:58.737Z,1028.06
2016-12-18T16:02:07.709Z,1028.02
2016-12-18T16:03:17.036Z,1028.03
2016-12-18T16:04:26.016Z,1028.04
2016-12-18T16:05:35.005Z,1028.03
2016-12-18T16:06:44.068Z,1028.02
2016-12-18T16:07:53.055Z,1028.04
2016-12-18T16:09:02.077Z,1028.04
2016-12-18T16:10:11.148Z,1028.04
2016-12-18T16:11:20.133Z,1028.05
2016-12-18T16:12:29.110Z,1028.01
2016-12-18T16:13:38.132Z,1028.01
2016-12-18T16:14:47.502Z,1027.99
2016-12-18T16:15:56.808Z,1028
2016-12-18T16:17:06.140Z,1028
2016-12-18T16:18:15.218Z,1028.04
2016-12-18T16:19:24.241Z,1028.05
2016-12-18T16:20:33.238Z,1028.03
2016-12-18T16:21:42.233Z,1028.02
2016-12-18T16:22:51.210Z,1028
2016-12-18T16:24:00.193Z,1028
2016-12-18T16:25:09.274Z,1028
2016-12-18T16:26:18.275Z,1028.02
2016-12-18T16:27:27.253Z,1028.01
2016-12-18T16:28:36.303Z,1028.01
2016-12-18T16:29:45.287Z,1028.03
2016-12-18T16:30:54.262Z,1028.05
2016-12-18T16:32:03.281Z,1028.06
2016-12-18T16:33:12.248Z,1028.05
2016-12-18T16:34:21.241Z,1028.06
2016-12-18T16:35:30.296Z,1028.05
2016-12-18T16:36:39.277Z,1028.04
2016-12-18T16:37:48.299Z,1028.05
2016-12-18T16:38:57.320Z,1028.03
2016-12-18T16:40:06.309Z,1028.03
2016-12-18T16:41:15.303Z,1028.08
2016-12-18T16:42:24.280Z,1028.08
2016-12-18T16:43:33.676Z,1028.04
2016-12-18T16:44:42.812Z,1028.05
2016-12-18T16:45:51.799Z,1028.01
2016-12-18T16:47:00.909Z,1028.06
2016-12-18T16:48:09.898Z,1028.03
2016-12-18T16:49:18.882Z,1028.03
2016-12-18T16:50:27.944Z,1027.98
2016-12-18T16:51:36.921Z,1028.01
2016-12-18T16:52:45.902Z,1028
2016-12-18T16:53:54.944Z,1027.99
2016-12-18T16:55:03.973Z,1027.98
2016-12-18T16:56:13.116Z,1027.96
2016-12-18T16:57:22.428Z,1027.97
2016-12-18T16:58:31.409Z,1027.96
2016-12-18T16:59:40.438Z,1028.01
2016-12-18T17:00:49.739Z,1028.03
2016-12-18T17:01:58.715Z,1028.01
2016-12-18T17:03:07.702Z,1028.02
2016-12-18T17:04:16.706Z,1028.03
2016-12-18T17:05:25.742Z,1027.98
2016-12-18T17:06:34.738Z,1027.98
2016-12-18T17:07:43.731Z,1027.99
2016-12-18T17:08:52.971Z,1027.97
2016-12-18T17:10:01.956Z,1027.99
2016-12-18T17:11:10.942Z,1028.03
2016-12-18T17:12:20.416Z,1027.97
2016-12-18T17:13:29.734Z,1027.97
2016-12-18T17:14:39.846Z,1027.98
2016-12-18T17:15:48.980Z,1027.99
2016-12-18T17:16:58.323Z,1028.01
2016-12-18T17:18:07.568Z,1027.99
2016-12-18T17:19:16.598Z,1028.02
2016-12-18T17:20:25.865Z,1027.99
2016-12-18T17:21:34.872Z,1028.01
2016-12-18T17:22:43.869Z,1028
2016-12-18T17:23:52.857Z,1028.01
2016-12-18T17:25:01.853Z,1028.05
2016-12-18T17:26:11.139Z,1028.11
2016-12-18T17:27:20.311Z,1028.15
2016-12-18T17:28:29.282Z,1028.16
2016-12-18T17:29:38.268Z,1028.14
2016-12-18T17:30:47.376Z,1028.19
2016-12-18T17:31:56.361Z,1028.16
2016-12-18T17:33:05.346Z,1028.18
2016-12-18T17:34:14.761Z,1028.19
2016-12-18T17:35:23.749Z,1028.18
2016-12-18T17:36:33.040Z,1028.22
2016-12-18T17:37:42.428Z,1028.25
2016-12-18T17:38:51.396Z,1028.29
2016-12-18T17:40:00.461Z,1028.28
2016-12-18T17:41:09.452Z,1028.29
2016-12-18T17:42:18.442Z,1028.29
2016-12-18T17:43:27.419Z,1028.26
2016-12-18T17:44:36.999Z,1028.3
2016-12-18T17:45:46.314Z,1028.34
2016-12-18T17:46:55.311Z,1028.29
2016-12-18T17:48:04.290Z,1028.32
2016-12-18T17:49:13.605Z,1028.3
2016-12-18T17:50:22.587Z,1028.3
2016-12-18T17:51:31.570Z,1028.31
2016-12-18T17:52:40.638Z,1028.34
2016-12-18T17:53:49.624Z,1028.37
2016-12-18T17:54:58.663Z,1028.36
2016-12-18T17:56:07.714Z,1028.36
2016-12-18T17:57:16.698Z,1028.34
2016-12-18T17:58:25.682Z,1028.37
2016-12-18T17:59:34.885Z,1028.37
2016-12-18T18:00:43.877Z,1028.36
2016-12-18T18:01:52.912Z,1028.31
2016-12-18T18:03:01.889Z,1028.36
2016-12-18T18:04:11.187Z,1028.34
2016-12-18T18:05:20.176Z,1028.34
2016-12-18T18:06:29.169Z,1028.28
2016-12-18T18:07:38.426Z,1028.33
2016-12-18T18:08:48.294Z,1028.3
2016-12-18T18:09:57.266Z,1028.3
2016-12-18T18:11:06.281Z,1028.28
2016-12-18T18:12:15.266Z,1028.27
2016-12-18T18:13:24.243Z,1028.23
2016-12-18T18:14:33.369Z,1028.22
2016-12-18T18:15:42.363Z,1028.25
2016-12-18T18:16:51.394Z,1028.28
2016-12-18T18:18:00.413Z,1028.32
2016-12-18T18:19:09.398Z,1028.3
2016-12-18T18:20:18.394Z,1028.35
2016-12-18T18:21:27.377Z,1028.32
2016-12-18T18:22:36.395Z,1028.32
2016-12-18T18:23:45.463Z,1028.35
2016-12-18T18:24:54.741Z,1028.32
2016-12-18T18:26:03.720Z,1028.34
2016-12-18T18:27:12.709Z,1028.37
2016-12-18T18:28:21.700Z,1028.39
2016-12-18T18:29:30.761Z,1028.41
2016-12-18T18:30:39.841Z,1028.45
2016-12-18T18:31:48.821Z,1028.47
2016-12-18T18:32:58.284Z,1028.5
2016-12-18T18:34:07.263Z,1028.55
2016-12-18T18:35:16.254Z,1028.53
2016-12-18T18:36:25.949Z,1028.51
2016-12-18T18:37:34.946Z,1028.52
2016-12-18T18:38:43.920Z,1028.5
2016-12-18T18:39:52.970Z,1028.53
2016-12-18T18:41:01.941Z,1028.5
2016-12-18T18:42:10.959Z,1028.51
2016-12-18T18:43:20.116Z,1028.55
2016-12-18T18:44:29.103Z,1028.55
2016-12-18T18:45:38.119Z,1028.55
2016-12-18T18:46:47.414Z,1028.57
2016-12-18T18:47:56.420Z,1028.61
2016-12-18T18:49:05.423Z,1028.61
2016-12-18T18:50:14.425Z,1028.64
2016-12-18T18:51:23.557Z,1028.62
2016-12-18T18:52:32.541Z,1028.63
2016-12-18T18:53:42.593Z,1028.62
2016-12-18T18:54:51.650Z,1028.63
2016-12-18T18:56:00.633Z,1028.68
2016-12-18T18:57:09.613Z,1028.68
2016-12-18T18:58:18.803Z,1028.64
2016-12-18T18:59:27.822Z,1028.61
2016-12-18T19:00:36.816Z,1028.57
2016-12-18T19:01:45.825Z,1028.59
2016-12-18T19:02:54.835Z,1028.52
2016-12-18T19:04:03.949Z,1028.52
2016-12-18T19:05:12.963Z,1028.54
2016-12-18T19:06:21.952Z,1028.57
2016-12-18T19:07:30.952Z,1028.55
2016-12-18T19:08:39.939Z,1028.54
2016-12-18T19:09:49.023Z,1028.55
2016-12-18T19:10:58.728Z,1028.6
2016-12-18T19:12:07.816Z,1028.66
2016-12-18T19:13:16.943Z,1028.66
2016-12-18T19:14:25.928Z,1028.65
2016-12-18T19:15:34.916Z,1028.71
2016-12-18T19:16:44.236Z,1028.76
2016-12-18T19:17:53.306Z,1028.76
2016-12-18T19:19:02.462Z,1028.75
2016-12-18T19:20:11.464Z,1028.72
2016-12-18T19:21:20.437Z,1028.66
2016-12-18T19:22:29.478Z,1028.66
2016-12-18T19:23:38.487Z,1028.68
2016-12-18T19:24:47.489Z,1028.66
2016-12-18T19:25:56.469Z,1028.66
2016-12-18T19:27:05.456Z,1028.69
2016-12-18T19:28:14.761Z,1028.68
2016-12-18T19:29:24.016Z,1028.69
2016-12-18T19:30:37.676Z,1028.67
2016-12-18T19:31:53.001Z,1028.67
2016-12-18T19:33:06.901Z,1028.68
2016-12-18T19:34:15.896Z,1028.71
2016-12-18T19:35:24.885Z,1028.75
2016-12-18T19:36:34.389Z,1028.76
2016-12-18T19:37:43.381Z,1028.84
2016-12-18T19:38:52.479Z,1028.81
2016-12-18T19:40:02.252Z,1028.85
2016-12-18T19:41:11.239Z,1028.84
2016-12-18T19:42:20.276Z,1028.88
2016-12-18T19:43:29.401Z,1028.88
2016-12-18T19:44:38.824Z,1028.87
2016-12-18T19:45:48.220Z,1028.9
2016-12-18T19:46:58.122Z,1028.93
2016-12-18T19:48:07.295Z,1028.93
2016-12-18T19:49:16.281Z,1028.96
2016-12-18T19:50:25.627Z,1028.96
2016-12-18T19:51:34.685Z,1028.95
2016-12-18T19:52:45.302Z,1028.94
2016-12-18T19:53:55.239Z,1028.95
2016-12-18T19:55:04.869Z,1028.93
2016-12-18T19:56:14.323Z,1028.93
2016-12-18T19:57:23.402Z,1028.95
2016-12-18T19:58:32.675Z,1028.94
2016-12-18T19:59:41.728Z,1028.97
2016-12-18T20:00:51.174Z,1028.96
2016-12-18T20:02:00.610Z,1028.93
2016-12-18T20:03:09.947Z,1028.97
2016-12-18T20:04:20.770Z,1028.96
2016-12-18T20:05:30.564Z,1028.95
2016-12-18T20:06:39.611Z,1028.92
2016-12-18T20:07:48.691Z,1028.94
2016-12-18T20:08:57.772Z,1028.94
2016-12-18T20:10:06.757Z,1028.94
2016-12-18T20:11:15.748Z,1028.97
2016-12-18T20:12:25.218Z,1029
2016-12-18T20:13:34.490Z,1029.02
2016-12-18T20:14:45.195Z,1029.05
2016-12-18T20:15:54.291Z,1029.08
2016-12-18T20:17:03.540Z,1029.11
2016-12-18T20:18:12.853Z,1029.13
2016-12-18T20:19:23.095Z,1029.19
2016-12-18T20:20:33.007Z,1029.15
2016-12-18T20:21:43.328Z,1029.21
2016-12-18T20:22:52.830Z,1029.2
2016-12-18T20:24:02.212Z,1029.25
2016-12-18T20:25:11.272Z,1029.27
2016-12-18T20:26:20.261Z,1029.29
2016-12-18T20:27:29.247Z,1029.3
2016-12-18T20:28:38.229Z,1029.31
2016-12-18T20:29:47.397Z,1029.28
2016-12-18T20:30:56.384Z,1029.29
2016-12-18T20:32:05.483Z,1029.26
2016-12-18T20:33:14.932Z,1029.27
2016-12-18T20:34:23.915Z,1029.29
2016-12-18T20:35:32.903Z,1029.31
2016-12-18T20:36:42.126Z,1029.31
2016-12-18T20:37:51.224Z,1029.31
2016-12-18T20:39:00.640Z,1029.28
2016-12-18T20:40:09.934Z,1029.27
2016-12-18T20:41:19.708Z,1029.25
2016-12-18T20:42:29.536Z,1029.27
2016-12-18T20:43:38.674Z,1029.23
2016-12-18T20:44:49.378Z,1029.23
2016-12-18T20:45:58.356Z,1029.23
2016-12-18T20:47:07.329Z,1029.2
2016-12-18T20:48:16.583Z,1029.19
2016-12-18T20:49:25.931Z,1029.25
2016-12-18T20:50:34.917Z,1029.24
2016-12-18T20:51:43.901Z,1029.24
2016-12-18T20:52:52.971Z,1029.25
2016-12-18T20:54:02.271Z,1029.24
2016-12-18T20:55:11.260Z,1029.27
2016-12-18T20:56:20.605Z,1029.3
2016-12-18T20:57:29.577Z,1029.29
2016-12-18T20:58:38.564Z,1029.34
2016-12-18T20:59:47.555Z,1029.33
2016-12-18T21:00:56.540Z,1029.37
2016-12-18T21:02:05.570Z,1029.38
2016-12-18T21:03:14.805Z,1029.39
2016-12-18T21:04:23.775Z,1029.4
2016-12-18T21:05:32.741Z,1029.38
2016-12-18T21:06:41.728Z,1029.38
2016-12-18T21:07:50.709Z,1029.34
2016-12-18T21:08:59.711Z,1029.34
2016-12-18T21:10:08.696Z,1029.41
2016-12-18T21:11:18.242Z,1029.39
2016-12-18T21:12:27.227Z,1029.37
2016-12-18T21:13:36.212Z,1029.35
2016-12-18T21:14:45.531Z,1029.37
2016-12-18T21:15:54.515Z,1029.43
2016-12-18T21:17:03.501Z,1029.4
2016-12-18T21:18:12.542Z,1029.4
2016-12-18T21:19:22.375Z,1029.43
2016-12-18T21:20:31.727Z,1029.44
2016-12-18T21:21:41.716Z,1029.42
2016-12-18T21:22:50.715Z,1029.42
2016-12-18T21:23:59.698Z,1029.39
2016-12-18T21:25:08.681Z,1029.4
2016-12-18T21:26:18.112Z,1029.35
2016-12-18T21:27:27.087Z,1029.37
2016-12-18T21:28:36.105Z,1029.36
2016-12-18T21:29:45.433Z,1029.38
2016-12-18T21:30:54.416Z,1029.35
2016-12-18T21:32:03.419Z,1029.34
2016-12-18T21:33:12.663Z,1029.37
2016-12-18T21:34:21.656Z,1029.38
2016-12-18T21:35:30.647Z,1029.36
2016-12-18T21:36:39.674Z,1029.37
2016-12-18T21:37:48.658Z,1029.38
2016-12-18T21:38:57.645Z,1029.38
2016-12-18T21:40:06.739Z,1029.42
2016-12-18T21:41:15.717Z,1029.45
2016-12-18T21:42:24.734Z,1029.44
2016-12-18T21:43:34.010Z,1029.45
2016-12-18T21:44:43.091Z,1029.48
2016-12-18T21:45:52.105Z,1029.45
2016-12-18T21:47:01.316Z,1029.46
2016-12-18T21:48:10.312Z,1029.48
2016-12-18T21:49:19.331Z,1029.48
2016-12-18T21:50:28.689Z,1029.52
2016-12-18T21:51:37.683Z,1029.53
2016-12-18T21:52:46.689Z,1029.55
2016-12-18T21:53:55.876Z,1029.59
2016-12-18T21:55:04.861Z,1029.55
2016-12-18T21:56:13.994Z,1029.53
2016-12-18T21:57:22.982Z,1029.54
2016-12-18T21:58:32.265Z,1029.57
2016-12-18T21:59:41.278Z,1029.55
2016-12-18T22:00:50.417Z,1029.61
2016-12-18T22:01:59.898Z,1029.59
2016-12-18T22:03:08.893Z,1029.62
2016-12-18T22:04:18.211Z,1029.61
2016-12-18T22:05:27.328Z,1029.59
2016-12-18T22:06:36.313Z,1029.6
2016-12-18T22:07:45.889Z,1029.57
2016-12-18T22:08:55.111Z,1029.57
2016-12-18T22:10:04.109Z,1029.55
2016-12-18T22:11:13.254Z,1029.56
2016-12-18T22:12:22.332Z,1029.58
2016-12-18T22:13:31.338Z,1029.64
2016-12-18T22:14:40.354Z,1029.56
2016-12-18T22:15:49.812Z,1029.63
2016-12-18T22:16:58.850Z,1029.58
2016-12-18T22:18:07.869Z,1029.62
2016-12-18T22:19:17.147Z,1029.6
2016-12-18T22:20:27.013Z,1029.64
2016-12-18T22:21:36.011Z,1029.6
2016-12-18T22:22:45.709Z,1029.6
2016-12-18T22:23:54.756Z,1029.57
2016-12-18T22:25:03.741Z,1029.57
2016-12-18T22:26:12.726Z,1029.6
2016-12-18T22:27:21.907Z,1029.61
2016-12-18T22:28:30.945Z,1029.56
2016-12-18T22:29:39.920Z,1029.6
2016-12-18T22:30:49.268Z,1029.55
2016-12-18T22:31:58.268Z,1029.57
2016-12-18T22:33:07.250Z,1029.55
2016-12-18T22:34:16.422Z,1029.54
2016-12-18T22:35:25.416Z,1029.57
2016-12-18T22:36:34.435Z,1029.56
2016-12-18T22:37:43.494Z,1029.55
2016-12-18T22:38:52.505Z,1029.54
2016-12-18T22:40:01.527Z,1029.52
2016-12-18T22:41:10.551Z,1029.51
2016-12-18T22:42:19.538Z,1029.56
2016-12-18T22:43:28.538Z,1029.59
2016-12-18T22:44:37.973Z,1029.57
2016-12-18T22:45:46.994Z,1029.58
2016-12-18T22:46:55.992Z,1029.59
2016-12-18T22:48:05.026Z,1029.59
2016-12-18T22:49:14.264Z,1029.59
2016-12-18T22:50:23.250Z,1029.58
2016-12-18T22:51:32.228Z,1029.59
2016-12-18T22:52:41.294Z,1029.62
2016-12-18T22:53:50.299Z,1029.61
2016-12-18T22:54:59.264Z,1029.63
2016-12-18T22:56:08.332Z,1029.63
2016-12-18T22:57:17.315Z,1029.6
2016-12-18T22:58:26.307Z,1029.61
2016-12-18T22:59:35.446Z,1029.65
2016-12-18T23:00:44.430Z,1029.63
2016-12-18T23:01:53.407Z,1029.61
2016-12-18T23:03:02.443Z,1029.64
2016-12-18T23:04:11.436Z,1029.62
2016-12-18T23:05:20.657Z,1029.65
2016-12-18T23:06:29.826Z,1029.64
2016-12-18T23:07:38.804Z,1029.64
2016-12-18T23:08:47.795Z,1029.62
2016-12-18T23:09:56.803Z,1029.63
2016-12-18T23:11:05.787Z,1029.63
2016-12-18T23:12:14.773Z,1029.65
2016-12-18T23:13:23.776Z,1029.63
2016-12-18T23:14:32.755Z,1029.64
2016-12-18T23:15:41.745Z,1029.63
2016-12-18T23:16:50.737Z,1029.6
2016-12-18T23:17:59.727Z,1029.6
2016-12-18T23:19:08.741Z,1029.65
2016-12-18T23:20:17.724Z,1029.63
2016-12-18T23:21:26.937Z,1029.64
2016-12-18T23:22:35.922Z,1029.61
2016-12-18T23:23:44.919Z,1029.59
2016-12-18T23:24:54.057Z,1029.58
2016-12-18T23:26:03.067Z,1029.59
2016-12-18T23:27:12.037Z,1029.6
2016-12-18T23:28:21.156Z,1029.63
2016-12-18T23:29:30.173Z,1029.59
2016-12-18T23:30:39.148Z,1029.63
2016-12-18T23:31:48.414Z,1029.61
2016-12-18T23:32:57.388Z,1029.6
2016-12-18T23:34:06.362Z,1029.6
2016-12-18T23:35:15.679Z,1029.62
2016-12-18T23:36:24.659Z,1029.6
2016-12-18T23:37:33.667Z,1029.62
2016-12-18T23:38:42.784Z,1029.61
2016-12-18T23:39:51.773Z,1029.65
2016-12-18T23:41:00.790Z,1029.61
2016-12-18T23:42:09.898Z,1029.65
2016-12-18T23:43:18.869Z,1029.63
2016-12-18T23:44:27.908Z,1029.65
2016-12-18T23:45:37.186Z,1029.67
2016-12-18T23:46:46.155Z,1029.66
2016-12-18T23:47:55.135Z,1029.67
2016-12-18T23:49:04.110Z,1029.66
2016-12-18T23:50:13.209Z,1029.63
2016-12-18T23:51:22.199Z,1029.63
2016-12-18T23:52:31.186Z,1029.62
2016-12-18T23:53:41.066Z,1029.58
2016-12-18T23:54:50.041Z,1029.57
2016-12-18T23:55:59.018Z,1029.6
2016-12-18T23:57:08.465Z,1029.61
2016-12-18T23:58:17.455Z,1029.62
2016-12-18T23:59:26.431Z,1029.64
